Time;durP1;ratioP1;P1;durP2;ratioP2;P2;SDS_P1;SDS_P2;PMS_P1;PMS_P2;Temp;Humidity;BMP_temperature;BMP_pressure;BME280_temperature;BME280_humidity;BME280_pressure;Samples;Min_cycle;Max_cycle;Signal;HPM_P1;HPM_P2
2022/02/16 00:01:35;;;;;;;3.83;1.20;;;4.90;99.90;;;;;;5103334;28;20020;-66
2022/02/16 00:04:00;;;;;;;3.05;1.25;;;4.90;99.90;;;;;;5103003;28;20039;-66
2022/02/16 00:06:26;;;;;;;1.38;0.95;;;4.90;99.90;;;;;;5107689;28;20072;-66
2022/02/16 00:08:52;;;;;;;3.42;1.30;;;4.90;99.90;;;;;;5106411;28;20039;-66
2022/02/16 00:11:18;;;;;;;3.60;1.20;;;4.90;99.90;;;;;;5107410;28;20511;-66
2022/02/16 00:13:44;;;;;;;2.47;1.00;;;4.90;99.90;;;;;;5097303;28;20044;-66
2022/02/16 00:16:09;;;;;;;3.55;1.20;;;4.90;99.90;;;;;;5115159;27;20102;-66
2022/02/16 00:18:38;;;;;;;2.67;1.15;;;4.90;99.90;;;;;;5111401;28;20030;-66
2022/02/16 00:21:05;;;;;;;2.80;1.20;;;4.90;99.90;;;;;;5108123;28;20070;-66
2022/02/16 00:23:31;;;;;;;1.52;1.02;;;4.90;99.90;;;;;;5107612;28;20031;-66
2022/02/16 00:25:59;;;;;;;2.28;1.25;;;4.90;99.90;;;;;;5100187;28;20035;-66
2022/02/16 00:28:26;;;;;;;1.02;0.95;;;4.90;99.90;;;;;;5101192;28;20027;-66
2022/02/16 00:30:51;;;;;;;4.45;1.10;;;5.00;99.90;;;;;;5085040;28;20036;-66
2022/02/16 00:33:17;;;;;;;2.78;1.13;;;5.00;99.90;;;;;;5104346;28;20399;-66
2022/02/16 00:35:43;;;;;;;2.80;0.70;;;5.00;99.90;;;;;;5113768;28;20359;-66
2022/02/16 00:38:08;;;;;;;1.75;0.77;;;5.00;99.90;;;;;;5111727;28;20038;-66
2022/02/16 00:40:34;;;;;;;3.35;0.98;;;5.00;99.90;;;;;;5098541;28;20020;-66
2022/02/16 00:42:59;;;;;;;3.55;0.80;;;5.10;99.90;;;;;;5112809;28;20094;-66
2022/02/16 00:45:25;;;;;;;2.60;0.80;;;5.10;99.90;;;;;;5106532;28;20055;-66
2022/02/16 00:47:51;;;;;;;1.25;0.70;;;5.10;99.90;;;;;;5101689;28;20024;-66
2022/02/16 00:50:17;;;;;;;1.73;1.00;;;5.10;99.90;;;;;;5113717;28;20048;-66
2022/02/16 00:52:42;;;;;;;1.42;0.80;;;5.20;99.90;;;;;;5103010;28;20106;-66
2022/02/16 00:55:08;;;;;;;1.67;0.90;;;5.20;99.90;;;;;;5093210;28;20391;-65
2022/02/16 00:57:34;;;;;;;1.00;0.70;;;5.20;99.90;;;;;;5110320;28;20097;-66
2022/02/16 00:59:59;;;;;;;2.95;1.00;;;5.20;99.90;;;;;;5094936;28;20051;-66
2022/02/16 01:02:26;;;;;;;2.88;0.95;;;5.30;99.90;;;;;;5112039;28;20027;-66
2022/02/16 01:04:51;;;;;;;1.15;0.77;;;5.30;99.90;;;;;;5096481;28;20031;-66
2022/02/16 01:07:17;;;;;;;3.08;0.82;;;5.30;99.90;;;;;;5108248;28;20019;-68
2022/02/16 01:09:43;;;;;;;3.13;1.00;;;5.30;99.90;;;;;;5112159;28;20031;-66
2022/02/16 01:12:09;;;;;;;3.85;0.80;;;5.30;99.90;;;;;;5112587;28;20546;-66
2022/02/16 01:14:35;;;;;;;1.13;0.80;;;5.30;99.90;;;;;;5107361;28;20032;-66
2022/02/16 01:17:00;;;;;;;4.30;1.08;;;5.30;99.90;;;;;;5110283;27;20055;-67
2022/02/16 01:19:26;;;;;;;2.78;0.95;;;5.30;99.90;;;;;;5111219;28;20051;-66
2022/02/16 01:21:55;;;;;;;1.95;0.90;;;5.30;99.90;;;;;;5108751;28;20119;-66
2022/02/16 01:24:21;;;;;;;4.03;1.00;;;5.30;99.90;;;;;;5092747;28;20035;-66
2022/02/16 01:26:47;;;;;;;1.50;0.93;;;5.30;99.90;;;;;;5086893;28;20024;-66
2022/02/16 01:29:12;;;;;;;2.17;1.13;;;5.20;99.90;;;;;;5111840;28;20031;-66
2022/02/16 01:31:38;;;;;;;4.03;0.82;;;5.20;99.90;;;;;;5110912;28;20036;-66
2022/02/16 01:34:04;;;;;;;1.60;0.82;;;5.10;99.90;;;;;;5077466;28;20485;-66
2022/02/16 01:36:29;;;;;;;2.33;0.82;;;5.10;99.90;;;;;;5092735;28;20051;-66
2022/02/16 01:38:55;;;;;;;1.02;0.88;;;5.10;99.90;;;;;;5110971;28;20475;-66
2022/02/16 01:41:21;;;;;;;4.85;1.08;;;5.10;99.90;;;;;;5111232;28;20019;-66
2022/02/16 01:43:49;;;;;;;2.88;0.70;;;5.00;99.90;;;;;;5111754;28;20030;-66
2022/02/16 01:46:14;;;;;;;4.78;1.10;;;5.10;99.90;;;;;;5110926;28;20061;-66
2022/02/16 01:48:40;;;;;;;0.90;0.73;;;5.00;99.90;;;;;;5109326;28;20059;-66
2022/02/16 01:51:06;;;;;;;2.90;1.00;;;5.00;99.90;;;;;;5084613;28;20027;-66
2022/02/16 01:53:31;;;;;;;3.40;0.80;;;4.90;99.90;;;;;;5092793;28;20465;-66
2022/02/16 01:55:57;;;;;;;3.17;0.85;;;4.90;99.90;;;;;;5092702;28;20509;-66
2022/02/16 01:58:24;;;;;;;2.33;0.80;;;4.90;99.90;;;;;;5110682;28;20394;-66
2022/02/16 02:00:49;;;;;;;2.53;0.90;;;4.90;99.90;;;;;;5110456;28;20047;-66
2022/02/16 02:03:15;;;;;;;3.80;1.00;;;4.80;99.90;;;;;;5109621;28;20067;-66
2022/02/16 02:05:41;;;;;;;1.33;0.80;;;4.80;99.90;;;;;;5110137;28;20051;-66
2022/02/16 02:08:07;;;;;;;5.18;0.90;;;4.80;99.90;;;;;;5108058;28;20093;-66
2022/02/16 02:10:32;;;;;;;5.32;1.38;;;4.80;99.90;;;;;;5092501;28;20027;-67
2022/02/16 02:12:58;;;;;;;5.47;1.48;;;4.90;99.90;;;;;;5108881;28;20031;-66
2022/02/16 02:15:24;;;;;;;1.38;0.85;;;4.80;99.90;;;;;;5109622;27;20020;-66
2022/02/16 02:17:50;;;;;;;3.20;1.00;;;4.90;99.90;;;;;;5110212;28;20024;-66
2022/02/16 02:20:27;;;;;;;1.52;0.90;;;4.80;99.90;;;;;;5091259;28;20032;-66
2022/02/16 02:22:54;;;;;;;2.78;1.27;;;4.80;99.90;;;;;;5094872;28;20096;-66
2022/02/16 02:25:20;;;;;;;3.60;0.88;;;4.80;99.90;;;;;;5099228;28;20020;-66
2022/02/16 02:27:46;;;;;;;2.10;0.95;;;4.80;99.90;;;;;;5081465;28;20448;-66
2022/02/16 02:30:13;;;;;;;2.33;0.93;;;4.80;99.90;;;;;;5099898;28;20022;-66
2022/02/16 02:32:41;;;;;;;4.22;0.90;;;4.80;99.90;;;;;;5110978;28;20043;-66
2022/02/16 02:35:07;;;;;;;3.85;1.00;;;4.80;99.90;;;;;;5088989;28;20038;-66
2022/02/16 02:37:40;;;;;;;3.05;1.13;;;4.70;99.90;;;;;;5110181;28;20028;-66
2022/02/16 02:40:07;;;;;;;2.08;0.77;;;4.70;99.90;;;;;;5109916;28;20490;-66
2022/02/16 02:42:40;;;;;;;2.65;0.98;;;4.70;99.90;;;;;;5104965;28;20444;-66
2022/02/16 02:45:07;;;;;;;1.35;0.60;;;4.70;99.90;;;;;;5109828;28;20702;-66
2022/02/16 02:47:33;;;;;;;4.25;0.90;;;4.70;99.90;;;;;;5103499;28;20365;-66
2022/02/16 02:49:59;;;;;;;2.75;0.90;;;4.70;99.90;;;;;;5105456;28;20046;-66
2022/02/16 02:52:24;;;;;;;2.42;1.02;;;4.70;99.90;;;;;;5110222;28;20015;-66
2022/02/16 02:54:50;;;;;;;2.15;1.02;;;4.60;99.90;;;;;;5091877;28;20068;-66
2022/02/16 02:57:17;;;;;;;2.20;0.80;;;4.60;99.90;;;;;;5107609;28;20024;-67
2022/02/16 02:59:42;;;;;;;3.92;0.75;;;4.60;99.90;;;;;;5109945;28;20020;-66
2022/02/16 03:02:08;;;;;;;1.90;0.80;;;4.60;99.90;;;;;;5110615;28;20111;-66
2022/02/16 03:04:33;;;;;;;2.38;1.00;;;4.60;99.90;;;;;;5110206;28;20318;-66
2022/02/16 03:06:59;;;;;;;2.40;0.85;;;4.60;99.90;;;;;;5107904;28;20046;-66
2022/02/16 03:09:25;;;;;;;2.97;1.10;;;4.60;99.90;;;;;;5108868;28;20016;-66
2022/02/16 03:11:50;;;;;;;2.95;0.80;;;4.50;99.90;;;;;;5109300;28;20031;-66
2022/02/16 03:14:16;;;;;;;3.20;1.00;;;4.50;99.90;;;;;;5101858;28;20111;-66
2022/02/16 03:16:41;;;;;;;2.80;1.13;;;4.50;99.90;;;;;;5110627;28;20038;-66
2022/02/16 03:19:07;;;;;;;1.38;1.00;;;4.50;99.90;;;;;;5100109;28;20092;-66
2022/02/16 03:21:33;;;;;;;2.72;0.80;;;4.50;99.90;;;;;;5104852;28;20019;-66
2022/02/16 03:23:58;;;;;;;2.20;1.10;;;4.50;99.90;;;;;;5108382;28;20035;-66
2022/02/16 03:26:24;;;;;;;2.08;0.90;;;4.50;99.90;;;;;;5102684;27;20047;-66
2022/02/16 03:28:49;;;;;;;2.08;0.90;;;4.40;99.90;;;;;;5111768;27;20019;-66
2022/02/16 03:31:15;;;;;;;2.05;0.90;;;4.40;99.90;;;;;;5091303;28;20088;-66
2022/02/16 03:33:41;;;;;;;3.95;0.93;;;4.40;99.90;;;;;;5108987;28;20020;-66
2022/02/16 03:36:06;;;;;;;3.55;1.00;;;4.40;99.90;;;;;;5090788;28;20027;-66
2022/02/16 03:38:32;;;;;;;3.75;1.15;;;4.40;99.90;;;;;;5107666;28;20027;-66
2022/02/16 03:40:57;;;;;;;3.47;0.85;;;4.40;99.90;;;;;;5108779;28;20024;-66
2022/02/16 03:43:24;;;;;;;4.82;0.90;;;4.40;99.90;;;;;;5109351;28;20098;-66
2022/02/16 03:45:50;;;;;;;1.88;1.05;;;4.40;99.90;;;;;;5109413;28;20031;-66
2022/02/16 03:48:15;;;;;;;4.00;1.02;;;4.30;99.90;;;;;;5101502;28;20031;-66
2022/02/16 03:50:41;;;;;;;3.17;1.00;;;4.30;99.90;;;;;;5106228;28;20492;-66
2022/02/16 03:53:07;;;;;;;1.70;1.05;;;4.30;99.90;;;;;;5091099;28;20028;-66
2022/02/16 03:55:32;;;;;;;2.75;1.15;;;4.30;99.90;;;;;;5108415;28;20503;-66
2022/02/16 03:57:58;;;;;;;2.60;1.30;;;4.30;99.90;;;;;;5090271;28;20032;-66
2022/02/16 04:00:23;;;;;;;5.32;1.48;;;4.30;99.90;;;;;;5089944;28;20509;-66
2022/02/16 04:02:49;;;;;;;3.53;1.77;;;4.30;99.90;;;;;;5108172;28;20431;-66
2022/02/16 04:05:15;;;;;;;3.17;1.40;;;4.30;99.90;;;;;;5108861;28;20102;-66
2022/02/16 04:07:40;;;;;;;6.20;1.65;;;4.30;99.90;;;;;;5106813;28;20073;-66
2022/02/16 04:10:07;;;;;;;5.95;2.15;;;4.30;99.90;;;;;;5090119;28;20404;-66
2022/02/16 04:12:33;;;;;;;7.80;2.35;;;4.30;99.90;;;;;;5090345;28;20487;-67
2022/02/16 04:14:59;;;;;;;9.00;2.70;;;4.30;99.90;;;;;;5100823;28;20208;-66
2022/02/16 04:17:24;;;;;;;7.57;2.80;;;4.30;99.90;;;;;;5107143;28;20463;-66
2022/02/16 04:19:50;;;;;;;6.70;2.80;;;4.30;99.90;;;;;;5102309;28;20035;-67
2022/02/16 04:22:17;;;;;;;6.28;2.83;;;4.20;99.90;;;;;;5108533;28;20069;-67
2022/02/16 04:24:43;;;;;;;11.50;3.42;;;4.30;99.90;;;;;;5107958;28;20043;-66
2022/02/16 04:27:09;;;;;;;11.02;3.20;;;4.30;99.90;;;;;;5095124;28;20024;-67
2022/02/16 04:29:35;;;;;;;8.45;3.78;;;4.30;99.90;;;;;;5104239;28;20102;-66
2022/02/16 04:32:01;;;;;;;10.25;4.13;;;4.30;99.90;;;;;;5109410;28;20210;-66
2022/02/16 04:34:27;;;;;;;9.98;4.20;;;4.30;99.90;;;;;;5109091;28;20472;-67
2022/02/16 04:36:52;;;;;;;13.80;4.68;;;4.30;99.90;;;;;;5106745;28;20024;-66
2022/02/16 04:39:18;;;;;;;13.00;4.90;;;4.30;99.90;;;;;;5106429;28;20023;-66
2022/02/16 04:41:43;;;;;;;15.07;5.43;;;4.30;99.90;;;;;;5090497;28;20155;-66
2022/02/16 04:44:09;;;;;;;14.82;5.22;;;4.30;99.90;;;;;;5108050;28;20363;-66
2022/02/16 04:46:35;;;;;;;16.35;6.47;;;4.30;99.90;;;;;;5091073;28;20660;-66
2022/02/16 04:49:00;;;;;;;19.25;6.47;;;4.30;99.90;;;;;;5101543;28;20118;-67
2022/02/16 04:51:26;;;;;;;14.10;6.10;;;4.30;99.90;;;;;;5108099;28;20541;-67
2022/02/16 04:53:51;;;;;;;19.35;6.25;;;4.30;99.90;;;;;;5107630;28;20031;-66
2022/02/16 04:56:18;;;;;;;16.55;6.40;;;4.30;99.90;;;;;;5108465;28;20027;-66
2022/02/16 04:58:44;;;;;;;18.05;6.55;;;4.30;99.90;;;;;;5106999;28;20434;-66
2022/02/16 05:01:09;;;;;;;14.10;5.38;;;4.30;99.90;;;;;;5075387;28;20047;-66
2022/02/16 05:03:35;;;;;;;13.05;5.00;;;4.30;99.90;;;;;;5108639;28;20677;-66
2022/02/16 05:06:01;;;;;;;15.25;5.57;;;4.40;99.90;;;;;;5106402;28;20032;-67
2022/02/16 05:08:27;;;;;;;14.75;5.68;;;4.30;99.90;;;;;;5106056;28;20077;-66
2022/02/16 05:10:53;;;;;;;15.45;5.80;;;4.40;99.90;;;;;;5108310;28;20039;-66
2022/02/16 05:13:18;;;;;;;14.93;5.13;;;4.30;99.90;;;;;;5105918;28;20429;-67
2022/02/16 05:15:44;;;;;;;15.38;5.78;;;4.40;99.90;;;;;;5103327;28;20027;-67
2022/02/16 05:18:10;;;;;;;11.13;4.78;;;4.40;99.90;;;;;;5099471;28;20051;-67
2022/02/16 05:20:35;;;;;;;14.18;4.85;;;4.40;99.90;;;;;;5101663;28;20027;-66
2022/02/16 05:23:04;;;;;;;13.48;4.82;;;4.30;99.90;;;;;;5123769;22;20036;-66
2022/02/16 05:25:30;;;;;;;12.07;4.50;;;4.40;99.90;;;;;;5074171;28;20028;-67
2022/02/16 05:27:56;;;;;;;15.88;4.78;;;4.40;99.90;;;;;;5071575;28;20333;-67
2022/02/16 05:30:21;;;;;;;15.10;4.65;;;4.40;99.90;;;;;;5076789;28;20040;-67
2022/02/16 05:32:47;;;;;;;9.85;4.03;;;4.40;99.90;;;;;;5081396;28;20032;-67
2022/02/16 05:35:12;;;;;;;11.35;4.50;;;4.40;99.90;;;;;;5086496;28;20456;-67
2022/02/16 05:37:39;;;;;;;8.65;3.60;;;4.40;99.90;;;;;;5078412;28;20165;-67
2022/02/16 05:40:05;;;;;;;11.68;3.47;;;4.40;99.90;;;;;;5081969;28;20028;-67
2022/02/16 05:42:31;;;;;;;9.77;3.60;;;4.40;99.90;;;;;;5082834;28;20482;-67
2022/02/16 05:44:56;;;;;;;8.73;3.17;;;4.40;99.90;;;;;;5084954;28;20115;-66
2022/02/16 05:47:22;;;;;;;5.63;3.30;;;4.40;99.90;;;;;;5090812;28;20036;-67
2022/02/16 05:49:48;;;;;;;11.82;3.42;;;4.40;99.90;;;;;;5092041;28;20040;-67
2022/02/16 05:52:13;;;;;;;6.93;3.03;;;4.50;99.90;;;;;;5091054;28;20043;-67
2022/02/16 05:54:39;;;;;;;9.82;3.00;;;4.40;99.90;;;;;;5084442;28;20502;-66
2022/02/16 05:57:06;;;;;;;9.13;3.03;;;4.50;99.90;;;;;;5077592;28;20480;-66
2022/02/16 05:59:31;;;;;;;8.05;3.25;;;4.50;99.90;;;;;;5083185;28;20040;-67
2022/02/16 06:02:03;;;;;;;6.97;2.90;;;4.50;99.90;;;;;;5087564;28;20142;-66
2022/02/16 06:04:32;;;;;;;9.27;2.97;;;4.50;99.90;;;;;;5079420;28;20033;-66
2022/02/16 06:06:58;;;;;;;6.63;3.20;;;4.50;99.90;;;;;;5083677;28;20089;-67
2022/02/16 06:09:24;;;;;;;7.90;3.35;;;4.50;99.90;;;;;;5084477;28;20020;-67
2022/02/16 06:11:49;;;;;;;9.25;3.33;;;4.50;99.90;;;;;;5082146;28;20043;-67
2022/02/16 06:14:15;;;;;;;8.88;3.25;;;4.50;99.90;;;;;;5091549;28;20032;-67
2022/02/16 06:16:40;;;;;;;6.55;3.10;;;4.50;99.90;;;;;;5087125;28;20099;-67
2022/02/16 06:19:06;;;;;;;10.30;2.95;;;4.50;99.90;;;;;;5090660;28;20510;-67
2022/02/16 06:21:32;;;;;;;6.88;2.75;;;4.50;99.90;;;;;;5085096;28;20096;-67
2022/02/16 06:23:57;;;;;;;7.80;2.35;;;4.60;99.90;;;;;;5084469;28;20064;-67
2022/02/16 06:26:23;;;;;;;5.20;1.95;;;4.60;99.90;;;;;;5081326;28;20040;-67
2022/02/16 06:28:48;;;;;;;4.35;2.20;;;4.60;99.90;;;;;;5098410;28;20055;-67
2022/02/16 06:31:14;;;;;;;6.70;2.22;;;4.60;99.90;;;;;;5090573;28;20024;-67
2022/02/16 06:33:40;;;;;;;4.80;1.77;;;4.60;99.90;;;;;;5091481;28;20028;-67
2022/02/16 06:36:06;;;;;;;3.20;1.70;;;4.70;99.90;;;;;;5087205;28;20074;-67
2022/02/16 06:38:32;;;;;;;3.22;1.63;;;4.70;99.90;;;;;;5086574;28;20077;-67
2022/02/16 06:40:57;;;;;;;5.78;1.65;;;4.70;99.90;;;;;;5078244;28;20036;-67
2022/02/16 06:43:23;;;;;;;9.88;4.75;;;4.70;99.90;;;;;;5077013;28;20166;-67
2022/02/16 06:45:49;;;;;;;6.22;2.28;;;4.70;99.90;;;;;;5084955;28;20027;-66
2022/02/16 06:48:15;;;;;;;5.20;1.60;;;4.80;99.90;;;;;;5083251;28;20028;-66
2022/02/16 06:50:41;;;;;;;3.67;1.75;;;4.80;99.90;;;;;;5091683;28;20055;-66
2022/02/16 06:53:07;;;;;;;2.97;1.60;;;4.80;99.90;;;;;;5091180;28;20077;-66
2022/02/16 06:55:33;;;;;;;6.45;2.05;;;4.80;99.90;;;;;;5071822;28;20104;-66
2022/02/16 06:57:59;;;;;;;5.25;2.08;;;4.90;99.90;;;;;;5071724;28;20398;-67
2022/02/16 07:00:25;;;;;;;8.50;2.60;;;4.90;99.90;;;;;;5077761;28;20049;-67
2022/02/16 07:02:50;;;;;;;4.40;1.50;;;4.90;99.90;;;;;;5079894;28;20039;-68
2022/02/16 07:05:16;;;;;;;5.05;2.05;;;4.90;99.90;;;;;;5091142;28;20032;-67
2022/02/16 07:07:41;;;;;;;4.57;1.80;;;5.00;99.90;;;;;;5083105;28;20031;-67
2022/02/16 07:10:09;;;;;;;4.43;1.80;;;5.00;99.90;;;;;;5090550;28;20063;-67
2022/02/16 07:12:37;;;;;;;4.90;1.90;;;5.00;99.90;;;;;;5090449;28;20027;-67
2022/02/16 07:15:03;;;;;;;5.10;1.80;;;5.00;99.90;;;;;;5086497;28;20028;-67
2022/02/16 07:17:29;;;;;;;2.72;1.55;;;5.00;99.90;;;;;;5080141;28;20077;-67
2022/02/16 07:19:54;;;;;;;5.97;2.05;;;5.00;99.90;;;;;;5081163;28;20032;-67
2022/02/16 07:22:20;;;;;;;3.67;1.67;;;5.00;99.90;;;;;;5083204;28;20490;-67
2022/02/16 07:24:46;;;;;;;7.55;3.00;;;5.10;99.90;;;;;;5082081;28;20036;-67
2022/02/16 07:27:12;;;;;;;4.40;1.70;;;5.10;99.90;;;;;;5078920;28;20504;-67
2022/02/16 07:29:38;;;;;;;2.70;1.42;;;5.10;99.90;;;;;;5087509;28;20040;-67
2022/02/16 07:32:04;;;;;;;5.00;1.60;;;5.10;99.90;;;;;;5084703;28;20107;-67
2022/02/16 07:34:31;;;;;;;5.55;1.92;;;5.10;99.90;;;;;;5086042;28;20020;-67
2022/02/16 07:37:00;;;;;;;5.07;1.70;;;5.10;99.90;;;;;;5083406;28;20123;-67
2022/02/16 07:39:27;;;;;;;3.60;1.77;;;5.10;99.90;;;;;;5082865;28;20531;-67
2022/02/16 07:41:56;;;;;;;4.65;2.15;;;5.20;99.90;;;;;;5087922;28;20025;-66
2022/02/16 07:44:22;;;;;;;4.90;1.98;;;5.20;99.90;;;;;;5087561;28;20028;-66
2022/02/16 07:46:47;;;;;;;3.22;1.42;;;5.20;99.90;;;;;;5085165;28;21666;-66
2022/02/16 07:49:14;;;;;;;3.50;1.42;;;5.20;99.90;;;;;;5084236;28;20032;-66
2022/02/16 07:51:40;;;;;;;5.60;1.73;;;5.30;99.90;;;;;;5083198;28;20036;-66
2022/02/16 07:54:05;;;;;;;4.07;1.55;;;5.30;99.90;;;;;;5087378;28;20028;-68
2022/02/16 07:56:34;;;;;;;2.75;1.38;;;5.30;99.90;;;;;;5086313;28;20016;-66
2022/02/16 07:59:00;;;;;;;4.25;1.35;;;5.30;99.90;;;;;;5086545;28;20024;-66
2022/02/16 08:01:25;;;;;;;3.30;1.30;;;5.40;99.90;;;;;;5089859;28;20443;-66
2022/02/16 08:03:51;;;;;;;3.60;1.27;;;5.40;99.90;;;;;;5089914;28;20108;-66
2022/02/16 08:06:17;;;;;;;4.38;1.40;;;5.50;99.90;;;;;;5089370;28;20077;-67
2022/02/16 08:08:42;;;;;;;2.88;1.30;;;5.50;99.90;;;;;;5089219;28;20550;-66
2022/02/16 08:11:08;;;;;;;3.35;1.20;;;5.50;99.90;;;;;;5084858;28;20081;-66
2022/02/16 08:13:34;;;;;;;2.13;1.10;;;5.50;99.90;;;;;;5075553;28;20029;-67
2022/02/16 08:15:59;;;;;;;1.25;1.00;;;5.60;99.90;;;;;;5064888;28;20046;-66
2022/02/16 08:18:27;;;;;;;2.05;1.08;;;5.60;99.90;;;;;;5080489;28;20052;-66
2022/02/16 08:20:52;;;;;;;2.47;1.27;;;5.60;99.90;;;;;;5078678;28;20020;-67
2022/02/16 08:23:18;;;;;;;2.88;1.17;;;5.70;99.90;;;;;;5089077;28;20503;-66
2022/02/16 08:25:44;;;;;;;1.67;1.10;;;5.70;99.90;;;;;;5088963;28;20610;-66
2022/02/16 08:28:10;;;;;;;3.08;1.30;;;5.70;99.90;;;;;;5088291;28;20381;-66
2022/02/16 08:30:36;;;;;;;1.63;0.90;;;5.80;99.90;;;;;;5088836;28;20024;-67
2022/02/16 08:33:02;;;;;;;1.92;1.05;;;5.80;99.90;;;;;;5070055;28;20068;-66
2022/02/16 08:35:28;;;;;;;4.10;1.40;;;5.90;99.90;;;;;;5081822;28;20360;-64
2022/02/16 08:37:54;;;;;;;1.83;1.08;;;5.80;99.90;;;;;;5084753;28;20035;-67
2022/02/16 08:40:22;;;;;;;2.88;1.83;;;5.90;99.90;;;;;;5084339;28;20021;-67
2022/02/16 08:42:47;;;;;;;3.25;1.08;;;5.90;99.90;;;;;;5084342;28;20482;-67
2022/02/16 08:45:13;;;;;;;1.80;1.00;;;5.90;99.90;;;;;;5088665;28;20047;-67
2022/02/16 08:47:39;;;;;;;2.70;1.10;;;6.00;99.90;;;;;;5084571;28;20115;-67
2022/02/16 08:50:05;;;;;;;2.05;1.17;;;6.00;99.90;;;;;;5090113;28;20504;-66
2022/02/16 08:52:31;;;;;;;1.25;0.70;;;6.00;99.90;;;;;;5085182;28;20035;-67
2022/02/16 08:54:56;;;;;;;2.63;1.00;;;6.00;99.90;;;;;;5078553;28;20024;-66
2022/02/16 08:57:22;;;;;;;1.52;1.13;;;6.00;99.90;;;;;;5092543;28;20024;-67
2022/02/16 08:59:49;;;;;;;2.08;1.00;;;6.00;99.90;;;;;;5093040;28;20061;-67
2022/02/16 09:02:14;;;;;;;2.63;0.82;;;6.00;99.90;;;;;;5074103;28;20021;-67
2022/02/16 09:04:40;;;;;;;1.17;0.90;;;6.00;99.90;;;;;;5088832;28;20032;-67
2022/02/16 09:09:49;;;;;;;1.48;0.68;;;6.10;99.90;;;;;;5086349;28;20054;-67
2022/02/16 09:12:15;;;;;;;0.93;0.80;;;6.20;99.90;;;;;;5068903;28;20535;-68
2022/02/16 09:14:41;;;;;;;2.17;1.08;;;6.20;99.90;;;;;;5087524;28;20032;-68
2022/02/16 09:17:06;;;;;;;4.28;1.52;;;6.20;99.90;;;;;;5082989;28;20111;-67
2022/02/16 09:19:33;;;;;;;3.05;0.90;;;6.20;99.90;;;;;;5087227;28;20051;-66
2022/02/16 09:21:58;;;;;;;1.20;0.70;;;6.20;99.90;;;;;;5090116;28;20031;-68
2022/02/16 09:24:24;;;;;;;1.00;0.82;;;6.20;99.90;;;;;;5081935;28;20032;-67
2022/02/16 09:26:52;;;;;;;1.83;0.80;;;6.20;99.90;;;;;;5083006;28;20037;-68
2022/02/16 09:29:18;;;;;;;0.95;0.60;;;6.20;99.90;;;;;;5091127;28;20538;-68
2022/02/16 09:31:44;;;;;;;2.22;0.80;;;6.20;99.90;;;;;;5091491;28;20032;-68
2022/02/16 09:34:09;;;;;;;2.45;0.80;;;6.30;99.90;;;;;;5089586;28;20028;-67
2022/02/16 09:36:35;;;;;;;0.60;0.60;;;6.30;99.90;;;;;;5092436;28;20490;-68
2022/02/16 09:39:02;;;;;;;5.90;0.77;;;6.40;99.90;;;;;;5076263;28;20491;-68
2022/02/16 09:41:28;;;;;;;0.60;0.52;;;6.40;99.90;;;;;;5086755;28;20073;-68
2022/02/16 09:43:55;;;;;;;0.90;0.80;;;6.40;99.90;;;;;;5086958;28;20025;-67
2022/02/16 09:46:20;;;;;;;1.23;0.50;;;6.40;99.90;;;;;;5081177;28;20111;-68
2022/02/16 09:48:46;;;;;;;0.70;0.70;;;6.40;99.90;;;;;;5086754;28;20170;-67
2022/02/16 09:51:13;;;;;;;2.05;0.60;;;6.50;99.90;;;;;;5091137;28;20081;-68
2022/02/16 09:53:38;;;;;;;1.73;0.90;;;6.50;99.90;;;;;;5080691;28;20043;-67
2022/02/16 09:56:04;;;;;;;2.47;0.68;;;6.50;99.90;;;;;;5068936;28;20025;-67
2022/02/16 09:58:33;;;;;;;1.08;0.98;;;6.50;99.90;;;;;;5083787;28;20131;-67
2022/02/16 10:01:08;;;;;;;0.43;0.43;;;6.50;99.90;;;;;;5091518;28;20016;-67
2022/02/16 10:03:34;;;;;;;1.63;0.50;;;6.60;99.90;;;;;;5092063;28;20395;-67
2022/02/16 10:06:01;;;;;;;1.10;0.50;;;6.60;99.90;;;;;;5083492;28;20028;-66
2022/02/16 10:08:47;;;;;;;1.38;0.60;;;6.60;99.90;;;;;;5079898;28;20120;-67
2022/02/16 10:11:15;;;;;;;1.02;0.50;;;6.70;99.90;;;;;;5081304;28;20111;-67
2022/02/16 10:13:42;;;;;;;0.68;0.68;;;6.80;99.90;;;;;;5093409;28;20111;-68
2022/02/16 10:16:09;;;;;;;1.80;0.80;;;6.80;99.90;;;;;;5090857;28;20614;-67
2022/02/16 10:18:59;;;;;;;0.68;0.50;;;6.80;99.90;;;;;;5091240;28;20032;-68
2022/02/16 10:21:25;;;;;;;2.63;0.60;;;6.90;99.90;;;;;;5088907;28;20155;-67
2022/02/16 10:23:52;;;;;;;0.95;0.73;;;6.90;99.90;;;;;;5086726;28;20115;-67
2022/02/16 10:26:18;;;;;;;1.10;0.82;;;6.90;99.90;;;;;;5070401;28;20020;-68
2022/02/16 10:28:46;;;;;;;1.50;0.60;;;7.00;99.90;;;;;;5083792;28;20538;-68
2022/02/16 10:31:12;;;;;;;0.70;0.68;;;7.00;99.90;;;;;;5085919;28;20035;-68
2022/02/16 10:33:46;;;;;;;2.60;0.70;;;7.00;99.90;;;;;;5085328;28;20119;-68
2022/02/16 10:36:14;;;;;;;1.15;0.65;;;7.00;99.90;;;;;;5087607;28;20025;-68
2022/02/16 10:39:00;;;;;;;0.50;0.50;;;7.00;99.90;;;;;;5089331;28;20516;-69
2022/02/16 10:41:30;;;;;;;0.82;0.82;;;7.10;99.90;;;;;;5090333;28;20069;-67
2022/02/16 10:43:57;;;;;;;0.70;0.70;;;7.10;99.90;;;;;;5083760;28;20039;-68
2022/02/16 10:46:27;;;;;;;1.75;0.60;;;7.10;99.90;;;;;;5088356;28;20062;-68
2022/02/16 10:49:17;;;;;;;0.50;0.50;;;7.10;99.90;;;;;;5086764;28;22522;-67
2022/02/16 10:51:45;;;;;;;0.32;0.32;;;7.10;99.90;;;;;;5089816;28;20040;-68
2022/02/16 10:54:12;;;;;;;0.73;0.60;;;7.10;99.90;;;;;;5082520;28;20050;-66
2022/02/16 10:56:39;;;;;;;2.38;0.60;;;7.10;99.90;;;;;;5081747;28;20016;-67
2022/02/16 10:59:04;;;;;;;1.50;0.40;;;7.10;99.90;;;;;;5091268;28;20435;-68
2022/02/16 11:01:30;;;;;;;16.88;1.80;;;7.20;99.90;;;;;;5088904;28;20028;-68
2022/02/16 11:03:57;;;;;;;0.40;0.40;;;7.20;99.90;;;;;;5076941;28;20028;-67
2022/02/16 11:06:23;;;;;;;0.65;0.43;;;7.30;99.90;;;;;;5076558;28;20051;-68
2022/02/16 11:08:53;;;;;;;0.50;0.50;;;7.30;99.90;;;;;;5079606;28;20029;-67
2022/02/16 11:11:19;;;;;;;1.85;0.70;;;7.40;99.90;;;;;;5085755;28;20111;-68
2022/02/16 11:13:45;;;;;;;0.45;0.40;;;7.40;99.90;;;;;;5091094;28;20091;-69
2022/02/16 11:16:11;;;;;;;0.77;0.50;;;7.40;99.90;;;;;;5091784;28;20051;-68
2022/02/16 11:18:48;;;;;;;0.35;0.35;;;7.50;99.90;;;;;;5090056;28;20491;-68
2022/02/16 11:21:17;;;;;;;0.40;0.40;;;7.50;99.90;;;;;;5091168;28;20036;-68
2022/02/16 11:23:48;;;;;;;0.50;0.50;;;7.60;99.90;;;;;;5166224;22;20635;-69
2022/02/16 11:26:43;;;;;;;0.38;0.35;;;7.60;99.90;;;;;;5113238;27;20111;-69
2022/02/16 11:29:29;;;;;;;0.40;0.40;;;7.70;99.90;;;;;;5109048;28;20038;-69
2022/02/16 11:32:01;;;;;;;0.40;0.40;;;7.70;99.90;;;;;;5092511;28;20020;-68
2022/02/16 11:34:27;;;;;;;0.43;0.43;;;7.70;99.90;;;;;;5110325;28;20432;-68
2022/02/16 11:36:56;;;;;;;0.82;0.43;;;7.80;99.90;;;;;;5109070;28;20269;-67
2022/02/16 11:39:42;;;;;;;0.38;0.38;;;7.80;99.90;;;;;;5110045;28;20024;-68
2022/02/16 11:42:13;;;;;;;0.40;0.40;;;7.80;99.90;;;;;;5109319;28;20483;-69
2022/02/16 11:44:51;;;;;;;0.47;0.40;;;7.90;99.90;;;;;;5083099;28;20032;-67
2022/02/16 11:47:39;;;;;;;0.47;0.47;;;8.00;99.90;;;;;;5108624;28;20134;-68
2022/02/16 11:50:14;;;;;;;0.28;0.28;;;8.10;99.90;;;;;;5109662;28;20130;-68
2022/02/16 11:52:50;;;;;;;0.30;0.30;;;8.20;99.90;;;;;;5110122;28;20107;-74
2022/02/16 11:55:22;;;;;;;0.50;0.50;;;8.30;99.90;;;;;;5102638;28;20102;-68
2022/02/16 11:57:56;;;;;;;0.40;0.40;;;8.40;99.90;;;;;;5090504;28;20035;-68
2022/02/16 12:00:33;;;;;;;0.40;0.40;;;8.40;99.90;;;;;;5111294;28;20028;-67
2022/02/16 12:03:07;;;;;;;1.60;0.50;;;8.50;99.90;;;;;;5108703;28;20020;-68
2022/02/16 12:05:45;;;;;;;0.40;0.40;;;8.60;99.90;;;;;;5093019;28;20357;-68
2022/02/16 12:08:15;;;;;;;0.47;0.47;;;8.60;99.90;;;;;;5103865;28;20120;-69
2022/02/16 12:10:44;;;;;;;0.40;0.40;;;8.60;99.90;;;;;;5109197;28;20410;-68
2022/02/16 12:13:10;;;;;;;0.55;0.50;;;8.60;99.90;;;;;;5110411;28;20019;-68
2022/02/16 12:15:36;;;;;;;0.40;0.40;;;8.60;99.90;;;;;;5108756;28;20043;-68
2022/02/16 12:18:02;;;;;;;3.90;0.50;;;8.60;99.90;;;;;;5091177;28;20149;-68
2022/02/16 12:20:28;;;;;;;1.38;0.60;;;8.60;99.90;;;;;;5091798;28;20031;-71
2022/02/16 12:23:00;;;;;;;0.40;0.40;;;8.60;99.90;;;;;;5086512;28;20429;-69
2022/02/16 12:25:26;;;;;;;0.63;0.63;;;8.70;99.90;;;;;;5107644;28;20061;-69
2022/02/16 12:27:59;;;;;;;0.40;0.40;;;8.70;99.90;;;;;;5106489;28;20036;-69
2022/02/16 12:30:36;;;;;;;1.02;0.43;;;8.70;99.90;;;;;;5110239;28;20042;-67
2022/02/16 12:33:03;;;;;;;3.53;0.52;;;8.70;99.90;;;;;;5114548;28;20042;-69
2022/02/16 12:35:29;;;;;;;1.15;0.38;;;8.70;99.90;;;;;;5114308;28;20099;-67
2022/02/16 12:37:54;;;;;;;0.40;0.35;;;8.70;99.90;;;;;;5112873;28;20106;-67
2022/02/16 12:40:23;;;;;;;1.10;0.45;;;8.70;99.90;;;;;;5114803;28;20066;-70
2022/02/16 12:42:49;;;;;;;0.50;0.50;;;8.70;99.90;;;;;;5113460;28;20023;-68
2022/02/16 12:45:21;;;;;;;1.00;0.77;;;8.80;99.90;;;;;;5096107;28;20035;-69
2022/02/16 12:47:48;;;;;;;0.40;0.40;;;8.80;99.90;;;;;;5112997;28;20464;-69
2022/02/16 12:50:14;;;;;;;0.68;0.40;;;8.80;99.90;;;;;;5114238;28;20023;-69
2022/02/16 12:52:40;;;;;;;0.57;0.57;;;8.80;99.90;;;;;;5113679;28;20024;-69
2022/02/16 12:55:07;;;;;;;0.77;0.55;;;8.70;99.90;;;;;;5112885;28;20039;-69
2022/02/16 12:57:33;;;;;;;0.70;0.55;;;8.70;99.90;;;;;;5111809;28;20030;-69